Time;durP1;ratioP1;P1;durP2;ratioP2;P2;SDS_P1;SDS_P2;PMS_P1;PMS_P2;Temp;Humidity;BMP_temperature;BMP_pressure;BME280_temperature;BME280_humidity;BME280_pressure;Samples;Min_cycle;Max_cycle;Signal;HPM_P1;HPM_P2
2022/02/10 00:19:41;;;;;;;9.13;6.65;;;7.60;99.90;;;;;;5071533;28;20441;-52
2022/02/10 00:25:10;;;;;;;14.23;7.63;;;7.60;99.90;;;;;;5071336;28;20047;-52
2022/02/10 00:35:46;;;;;;;16.02;8.23;;;7.70;99.90;;;;;;5075501;28;20043;-52
2022/02/10 00:38:12;;;;;;;13.85;8.23;;;7.70;99.90;;;;;;5093519;28;20124;-53
2022/02/10 00:40:38;;;;;;;13.85;8.05;;;7.70;99.90;;;;;;5093601;28;20076;-49
2022/02/10 00:43:05;;;;;;;14.27;8.85;;;7.60;99.90;;;;;;5093505;28;20070;-52
2022/02/10 00:45:33;;;;;;;13.13;8.30;;;7.70;99.90;;;;;;5093422;28;20032;-53
2022/02/10 00:48:05;;;;;;;14.95;8.20;;;7.60;99.90;;;;;;5093504;28;20115;-52
2022/02/10 00:50:34;;;;;;;13.05;8.35;;;7.60;99.90;;;;;;5093381;28;20036;-50
2022/02/10 00:53:09;;;;;;;15.30;8.95;;;7.60;99.90;;;;;;5093313;28;20075;-52
2022/02/10 00:55:38;;;;;;;15.02;7.45;;;7.60;99.90;;;;;;5092282;28;20097;-52
2022/02/10 00:58:07;;;;;;;13.95;8.00;;;7.60;99.90;;;;;;5093245;28;20086;-52
2022/02/10 01:24:34;;;;;;;7.43;4.10;;;7.40;99.90;;;;;;5133551;27;20043;-51
2022/02/10 01:29:46;;;;;;;6.05;3.33;;;7.40;99.90;;;;;;5133465;27;20058;-53
2022/02/10 01:32:12;;;;;;;6.68;3.97;;;7.40;99.90;;;;;;5133591;27;20039;-52
2022/02/10 01:34:46;;;;;;;7.38;3.63;;;7.40;99.90;;;;;;5133433;27;20071;-50
2022/02/10 01:37:12;;;;;;;7.43;3.60;;;7.40;99.90;;;;;;5133261;27;20513;-50
2022/02/10 01:39:43;;;;;;;6.05;3.90;;;7.40;99.90;;;;;;5133135;27;20043;-53
2022/02/10 02:04:19;;;;;;;4.88;3.30;;;7.30;99.90;;;;;;5069839;28;20141;-52
2022/02/10 02:06:47;;;;;;;7.73;3.93;;;7.30;99.90;;;;;;5069351;28;20484;-51
2022/02/10 02:09:16;;;;;;;8.48;3.78;;;7.30;99.90;;;;;;5069594;28;20056;-53
2022/02/10 02:11:47;;;;;;;6.90;3.92;;;7.30;99.90;;;;;;5069713;28;20246;-50
2022/02/10 02:14:16;;;;;;;5.70;4.32;;;7.30;99.90;;;;;;5069382;28;20532;-51
2022/02/10 02:16:46;;;;;;;6.93;3.72;;;7.40;99.90;;;;;;5069710;28;20070;-53
2022/02/10 02:19:12;;;;;;;5.82;4.28;;;7.40;99.90;;;;;;5069350;28;20036;-51
2022/02/10 02:21:42;;;;;;;6.70;3.70;;;7.40;99.90;;;;;;5097747;28;20062;-50
2022/02/10 02:24:09;;;;;;;3.92;3.20;;;7.40;99.90;;;;;;5132808;28;20409;-51
2022/02/10 02:26:35;;;;;;;8.57;3.55;;;7.40;99.90;;;;;;5135628;27;20553;-52
2022/02/10 02:29:05;;;;;;;6.70;3.67;;;7.30;99.90;;;;;;5136942;27;20054;-52
2022/02/10 02:31:41;;;;;;;4.78;3.22;;;7.40;99.90;;;;;;5136993;27;20115;-53
2022/02/10 02:34:34;;;;;;;4.35;3.20;;;7.30;99.90;;;;;;5136879;27;20148;-52
2022/02/10 03:06:49;;;;;;;5.90;3.83;;;7.40;99.90;;;;;;5136266;27;20043;-52
2022/02/10 03:09:22;;;;;;;7.22;3.40;;;7.40;99.90;;;;;;5136041;27;20088;-50
2022/02/10 03:11:48;;;;;;;4.22;3.53;;;7.30;99.90;;;;;;5136460;27;20084;-50
2022/02/10 03:14:18;;;;;;;6.57;3.88;;;7.30;99.90;;;;;;5136720;27;20043;-52
2022/02/10 04:16:16;;;;;;;7.88;4.93;;;7.20;99.90;;;;;;5135167;27;20047;-49
2022/02/10 04:26:17;;;;;;;8.27;5.40;;;7.10;99.90;;;;;;5134799;27;20112;-51
2022/02/10 04:44:36;;;;;;;10.52;6.57;;;7.10;99.90;;;;;;5134505;27;20039;-53
2022/02/10 05:03:28;;;;;;;11.02;8.32;;;7.10;99.90;;;;;;5070401;28;20644;-52
2022/02/10 05:35:37;;;;;;;14.50;10.27;;;6.90;99.90;;;;;;5070194;28;20036;-52
2022/02/10 05:38:14;;;;;;;17.58;10.77;;;7.00;99.90;;;;;;5070001;28;20036;-53
2022/02/10 05:46:01;;;;;;;17.25;9.75;;;6.90;99.90;;;;;;5133158;27;20043;-53
2022/02/10 05:59:19;;;;;;;18.00;11.00;;;6.80;99.90;;;;;;5133141;27;20043;-52
2022/02/10 06:56:26;;;;;;;21.77;11.85;;;6.70;99.90;;;;;;5069304;28;20044;-53
2022/02/10 07:12:34;;;;;;;17.98;12.40;;;6.70;99.90;;;;;;5070567;28;20040;-52
2022/02/10 07:59:59;;;;;;;22.73;12.10;;;6.60;99.90;;;;;;5071991;28;20155;-52
2022/02/10 09:01:28;;;;;;;13.65;5.32;;;6.90;99.90;;;;;;5093516;28;20044;-62
2022/02/10 09:20:39;;;;;;;18.98;5.20;;;7.10;99.90;;;;;;5070798;28;20094;-61
2022/02/10 09:58:36;;;;;;;12.38;4.20;;;7.20;99.90;;;;;;5112898;28;20044;-61
2022/02/10 10:01:49;;;;;;;15.88;5.30;;;7.30;99.90;;;;;;5112677;28;20051;-61
2022/02/10 10:04:22;;;;;;;14.68;3.97;;;7.20;99.90;;;;;;5029796;28;20065;-61
2022/02/10 10:14:35;;;;;;;14.00;3.70;;;7.60;99.90;;;;;;5029680;28;20072;-52
2022/02/10 10:58:12;;;;;;;13.35;2.85;;;8.80;99.90;;;;;;5115961;28;20079;-60
2022/02/10 11:00:57;;;;;;;7.85;2.00;;;8.80;99.90;;;;;;5115919;28;20043;-51
2022/02/10 11:36:23;;;;;;;10.45;2.03;;;8.70;99.90;;;;;;5034024;28;20136;-49
2022/02/10 11:38:52;;;;;;;10.27;2.40;;;8.50;99.90;;;;;;5032717;28;20038;-47
2022/02/10 11:43:36;;;;;;;15.40;2.28;;;8.40;99.90;;;;;;5115476;28;20092;-46
2022/02/10 12:39:19;;;;;;;11.50;2.55;;;9.10;99.90;;;;;;5051520;28;20037;-60
2022/02/10 12:43:01;;;;;;;15.82;2.80;;;9.00;99.90;;;;;;5051595;28;20041;-61
2022/02/10 14:16:51;;;;;;;10.70;2.38;;;8.10;99.90;;;;;;5049473;28;20060;-61
2022/02/10 14:19:28;;;;;;;14.98;2.28;;;8.00;99.90;;;;;;5046702;28;20488;-61
2022/02/10 14:27:10;;;;;;;9.93;2.28;;;7.90;99.90;;;;;;5049158;28;20564;-61
2022/02/10 14:29:39;;;;;;;13.25;2.40;;;7.90;99.90;;;;;;5049014;28;20037;-61
2022/02/10 14:32:10;;;;;;;9.50;2.15;;;7.80;99.90;;;;;;5065926;28;20047;-61
2022/02/10 14:34:36;;;;;;;10.65;2.35;;;7.70;99.90;;;;;;5073073;28;20424;-61
2022/02/10 14:37:26;;;;;;;11.13;2.85;;;7.70;99.90;;;;;;5091509;28;20100;-61
2022/02/10 15:14:17;;;;;;;11.30;1.95;;;7.50;99.90;;;;;;5028918;28;20034;-61
2022/02/10 15:32:41;;;;;;;8.82;2.40;;;7.20;99.90;;;;;;5008930;28;20042;-59
2022/02/10 15:53:22;;;;;;;12.05;2.10;;;6.90;99.90;;;;;;5012253;28;20120;-53
2022/02/10 15:56:21;;;;;;;17.05;3.10;;;6.90;99.90;;;;;;5012247;28;20042;-51
2022/02/10 16:17:32;;;;;;;10.82;2.55;;;6.60;99.90;;;;;;5031834;28;20081;-60
2022/02/10 16:20:06;;;;;;;12.50;2.47;;;6.60;99.90;;;;;;5031858;28;20126;-52
2022/02/10 16:22:37;;;;;;;13.52;2.53;;;6.50;99.90;;;;;;5015363;28;20076;-62
2022/02/10 16:25:04;;;;;;;19.08;3.08;;;6.50;99.90;;;;;;5032083;28;20098;-59
2022/02/10 16:27:30;;;;;;;15.73;3.35;;;6.40;99.90;;;;;;5031555;28;20523;-59
2022/02/10 16:30:04;;;;;;;11.75;3.40;;;6.40;99.90;;;;;;5031478;28;20042;-60
2022/02/10 16:32:31;;;;;;;11.45;2.28;;;6.40;99.90;;;;;;5031515;28;20438;-60
2022/02/10 16:35:01;;;;;;;15.27;2.88;;;6.40;99.90;;;;;;5031487;28;20048;-51
2022/02/10 16:37:27;;;;;;;8.50;2.00;;;6.30;99.90;;;;;;5031246;28;20080;-52
2022/02/10 16:39:53;;;;;;;9.13;2.85;;;6.30;99.90;;;;;;5031162;28;20554;-51
2022/02/10 16:42:18;;;;;;;16.02;2.22;;;6.20;99.90;;;;;;5031214;28;20084;-51
2022/02/10 16:44:46;;;;;;;8.73;2.05;;;6.10;99.90;;;;;;5014446;28;20048;-52
2022/02/10 16:47:12;;;;;;;15.15;3.30;;;6.10;99.90;;;;;;5030945;28;20058;-51
2022/02/10 16:49:44;;;;;;;14.85;3.35;;;6.10;99.90;;;;;;5030912;28;20431;-52
2022/02/10 16:52:11;;;;;;;15.05;2.55;;;6.10;99.90;;;;;;5040358;28;20038;-53
2022/02/10 16:54:42;;;;;;;12.00;2.53;;;6.10;99.90;;;;;;5113915;28;20039;-51
2022/02/10 16:57:36;;;;;;;14.05;3.42;;;6.10;99.90;;;;;;5113769;28;20114;-52
2022/02/10 17:00:21;;;;;;;12.55;2.20;;;6.10;99.90;;;;;;5113431;28;20110;-52
2022/02/10 17:03:28;;;;;;;17.30;2.55;;;6.10;99.90;;;;;;5113477;28;20462;-53
2022/02/10 17:27:18;;;;;;;10.13;2.10;;;5.90;99.90;;;;;;5112899;28;20119;-52
2022/02/10 17:53:49;;;;;;;12.20;2.20;;;5.80;99.90;;;;;;5112491;28;20496;-50
2022/02/10 17:56:14;;;;;;;12.18;2.85;;;5.70;99.90;;;;;;5093631;28;20051;-52
2022/02/10 17:58:40;;;;;;;18.52;3.00;;;5.70;99.90;;;;;;5112678;28;20525;-51
2022/02/10 18:01:07;;;;;;;11.98;2.70;;;5.70;99.90;;;;;;5112779;28;20048;-52
2022/02/10 18:03:33;;;;;;;14.50;2.20;;;5.60;99.90;;;;;;5112371;28;20055;-48
2022/02/10 18:08:36;;;;;;;16.40;2.70;;;5.50;99.90;;;;;;5112359;28;20073;-51
2022/02/10 18:14:16;;;;;;;19.20;4.95;;;5.40;99.90;;;;;;5112373;28;20091;-52
2022/02/10 18:19:08;;;;;;;12.47;2.37;;;5.40;99.90;;;;;;5112364;28;20101;-49
2022/02/10 18:24:07;;;;;;;15.95;2.55;;;5.40;99.90;;;;;;5112089;28;20550;-50
2022/02/10 19:09:39;;;;;;;16.02;2.53;;;5.00;99.90;;;;;;5032960;28;20049;-52
2022/02/10 19:12:14;;;;;;;15.65;3.00;;;5.00;99.90;;;;;;5032892;28;20443;-51
2022/02/10 19:14:40;;;;;;;18.48;2.92;;;4.90;99.90;;;;;;5032972;28;20165;-53
2022/02/10 19:17:06;;;;;;;14.20;2.65;;;4.90;99.90;;;;;;5032825;28;20046;-52
2022/02/10 19:19:32;;;;;;;15.98;2.60;;;4.80;99.90;;;;;;5033112;28;20502;-53
2022/02/10 19:21:58;;;;;;;11.20;2.45;;;4.80;99.90;;;;;;5061867;28;20177;-52
2022/02/10 19:24:24;;;;;;;22.38;3.33;;;4.80;99.90;;;;;;5115335;28;20546;-53
2022/02/10 19:26:50;;;;;;;15.75;2.65;;;4.80;99.90;;;;;;5115649;28;20039;-50
2022/02/10 19:29:21;;;;;;;16.15;2.75;;;4.70;99.90;;;;;;5115661;28;20061;-51
2022/02/10 19:31:48;;;;;;;14.32;3.35;;;4.80;99.90;;;;;;5097412;28;20109;-52
2022/02/10 19:34:14;;;;;;;9.75;2.15;;;4.70;99.90;;;;;;5115689;28;20093;-50
2022/02/10 19:36:39;;;;;;;13.57;2.78;;;4.70;99.90;;;;;;5115342;28;20043;-51
2022/02/10 19:39:05;;;;;;;16.55;3.47;;;4.70;99.90;;;;;;5115442;28;20390;-52
2022/02/10 19:41:35;;;;;;;15.05;2.88;;;4.60;99.90;;;;;;5115232;28;20035;-52
2022/02/10 19:44:04;;;;;;;14.57;3.05;;;4.70;99.90;;;;;;5115354;28;20050;-51
2022/02/10 19:46:30;;;;;;;11.38;2.33;;;4.60;99.90;;;;;;5115229;28;20085;-52
2022/02/10 19:48:56;;;;;;;12.50;2.70;;;4.60;99.90;;;;;;5115204;28;20035;-51
2022/02/10 19:51:22;;;;;;;13.68;3.72;;;4.60;99.90;;;;;;5115025;28;20051;-53
2022/02/10 19:53:48;;;;;;;12.88;2.63;;;4.60;99.90;;;;;;5114969;28;20032;-51
2022/02/10 19:56:15;;;;;;;10.25;2.25;;;4.60;99.90;;;;;;5114955;28;20035;-53
2022/02/10 19:58:41;;;;;;;8.38;2.05;;;4.60;99.90;;;;;;5096314;28;20051;-51
2022/02/10 20:01:07;;;;;;;13.10;2.67;;;4.60;99.90;;;;;;5114620;28;20043;-52
2022/02/10 20:03:37;;;;;;;20.08;2.75;;;4.50;99.90;;;;;;5096310;28;20065;-52
2022/02/10 20:06:03;;;;;;;11.18;2.80;;;4.50;99.90;;;;;;5114915;28;20036;-50
2022/02/10 20:08:29;;;;;;;14.65;2.78;;;4.50;99.90;;;;;;5096322;28;20515;-53
2022/02/10 20:10:55;;;;;;;15.90;2.80;;;4.50;99.90;;;;;;5095889;28;20040;-52
2022/02/10 20:13:23;;;;;;;12.52;2.17;;;4.50;99.90;;;;;;5114571;28;20129;-52
2022/02/10 20:15:50;;;;;;;14.55;2.67;;;4.50;99.90;;;;;;5114422;28;20422;-51
2022/02/10 20:18:19;;;;;;;15.55;3.08;;;4.40;99.90;;;;;;5114263;28;20046;-52
2022/02/10 20:20:48;;;;;;;11.57;2.30;;;4.50;99.90;;;;;;5113450;28;20042;-52
2022/02/10 20:23:14;;;;;;;15.18;2.67;;;4.40;99.90;;;;;;5114796;28;20493;-52
2022/02/10 20:25:40;;;;;;;11.45;2.83;;;4.40;99.90;;;;;;5114490;28;20040;-53
2022/02/10 20:28:09;;;;;;;15.95;2.70;;;4.50;99.90;;;;;;5114370;28;20040;-50
2022/02/10 20:30:39;;;;;;;15.02;2.30;;;4.40;99.90;;;;;;5114278;28;20047;-51
2022/02/10 20:33:05;;;;;;;17.02;2.13;;;4.40;99.90;;;;;;5113895;28;20046;-52
2022/02/10 20:35:32;;;;;;;19.35;3.28;;;4.40;99.90;;;;;;5114239;28;20034;-53
2022/02/10 20:38:01;;;;;;;16.83;2.78;;;4.40;99.90;;;;;;5114180;28;20054;-51
2022/02/10 20:40:28;;;;;;;10.50;2.30;;;4.40;99.90;;;;;;5114129;28;20082;-52
2022/02/10 20:43:02;;;;;;;24.10;3.08;;;4.40;99.90;;;;;;5113954;28;20096;-51
2022/02/10 20:45:28;;;;;;;14.10;2.42;;;4.40;99.90;;;;;;5113974;28;20048;-50
2022/02/10 20:47:54;;;;;;;14.20;3.03;;;4.50;99.90;;;;;;5114058;28;20036;-52
2022/02/10 20:50:19;;;;;;;16.08;3.60;;;4.40;99.90;;;;;;5113780;28;20039;-50
2022/02/10 20:52:45;;;;;;;11.95;2.90;;;4.50;99.90;;;;;;5113830;28;20032;-52
2022/02/10 20:55:11;;;;;;;17.15;3.03;;;4.40;99.90;;;;;;5113803;28;20466;-52
2022/02/10 20:57:36;;;;;;;12.95;2.72;;;4.40;99.90;;;;;;5113660;28;20040;-53
2022/02/10 21:00:09;;;;;;;12.35;2.83;;;4.40;99.90;;;;;;5113556;28;20047;-53
2022/02/10 21:02:40;;;;;;;17.08;2.75;;;4.40;99.90;;;;;;5113671;28;20110;-51
2022/02/10 21:05:22;;;;;;;10.60;2.55;;;4.40;99.90;;;;;;5113329;28;20066;-52
2022/02/10 21:07:59;;;;;;;20.77;2.63;;;4.40;99.90;;;;;;5113549;28;20043;-50
2022/02/10 21:10:27;;;;;;;13.93;3.10;;;4.30;99.90;;;;;;5113322;28;20500;-52
2022/02/10 21:12:53;;;;;;;16.27;3.08;;;4.30;99.90;;;;;;5113532;28;20036;-53
2022/02/10 21:15:25;;;;;;;18.77;3.30;;;4.20;99.90;;;;;;5113441;28;20089;-53
2022/02/10 21:17:56;;;;;;;14.30;3.20;;;4.20;99.90;;;;;;5113542;28;20160;-51
2022/02/10 21:20:22;;;;;;;15.55;3.65;;;4.20;99.90;;;;;;5113293;28;20043;-53
2022/02/10 21:22:58;;;;;;;18.25;3.40;;;4.10;99.90;;;;;;5113071;28;20526;-53
2022/02/10 21:25:24;;;;;;;15.50;2.67;;;4.10;99.90;;;;;;5113450;28;20036;-51
2022/02/10 21:27:52;;;;;;;10.23;3.00;;;4.00;99.90;;;;;;5113220;28;20113;-52
2022/02/10 21:30:20;;;;;;;16.10;2.90;;;4.10;99.90;;;;;;5113056;28;20067;-52
2022/02/10 21:32:56;;;;;;;16.98;3.10;;;4.00;99.90;;;;;;5112906;28;20044;-51
2022/02/10 21:59:27;;;;;;;12.68;2.38;;;3.60;99.90;;;;;;5049847;28;20171;-51
2022/02/10 22:17:27;;;;;;;18.50;3.47;;;3.70;99.90;;;;;;5067310;28;20036;-54
2022/02/10 22:19:58;;;;;;;12.63;3.80;;;3.70;99.90;;;;;;5094183;28;20044;-51
2022/02/10 22:22:34;;;;;;;15.32;2.83;;;3.70;99.90;;;;;;5112424;28;20039;-53
2022/02/10 22:25:03;;;;;;;15.43;3.47;;;3.70;99.90;;;;;;5112697;28;20424;-52
2022/02/10 22:27:33;;;;;;;14.50;2.92;;;3.70;99.90;;;;;;5112419;28;20633;-52
2022/02/10 22:30:05;;;;;;;10.55;1.98;;;3.60;99.90;;;;;;5112235;28;20043;-52
2022/02/10 22:32:47;;;;;;;12.00;1.98;;;3.60;99.90;;;;;;5112090;28;20542;-52
2022/02/10 22:35:13;;;;;;;11.05;2.85;;;3.60;99.90;;;;;;5112197;28;20035;-53
2022/02/10 22:37:40;;;;;;;14.38;2.47;;;3.70;99.90;;;;;;5112264;28;20502;-51
2022/02/10 22:40:21;;;;;;;15.13;2.50;;;3.60;99.90;;;;;;5112094;28;20044;-51
2022/02/10 22:42:47;;;;;;;13.55;2.33;;;3.60;99.90;;;;;;5095690;28;20052;-52
2022/02/10 22:45:14;;;;;;;11.40;2.38;;;3.60;99.90;;;;;;5116458;28;20167;-52
2022/02/10 22:47:40;;;;;;;13.10;2.17;;;3.60;99.90;;;;;;5116318;28;20051;-50
2022/02/10 22:50:06;;;;;;;7.40;2.50;;;3.50;99.90;;;;;;5116183;28;20040;-52
2022/02/10 22:52:32;;;;;;;13.85;2.78;;;3.50;99.90;;;;;;5097940;28;20031;-53
2022/02/10 22:54:57;;;;;;;12.88;2.80;;;3.50;99.90;;;;;;5116134;28;20038;-51
2022/02/10 22:57:23;;;;;;;8.23;1.80;;;3.50;99.90;;;;;;5116424;28;20043;-53
2022/02/10 22:59:49;;;;;;;12.07;2.35;;;3.50;99.90;;;;;;5116216;28;20123;-51
2022/02/10 23:02:14;;;;;;;13.38;3.17;;;3.60;99.90;;;;;;5116216;28;20123;-50
2022/02/10 23:04:41;;;;;;;15.27;2.40;;;3.60;99.90;;;;;;5115897;28;20055;-53
2022/02/10 23:07:10;;;;;;;12.57;2.45;;;3.60;99.90;;;;;;5115742;28;20104;-51
2022/02/10 23:12:10;;;;;;;11.93;3.10;;;3.70;99.90;;;;;;5115750;28;20039;-55
2022/02/10 23:14:36;;;;;;;12.55;3.03;;;3.80;99.90;;;;;;5115897;28;20194;-52
2022/02/10 23:17:02;;;;;;;11.48;2.83;;;3.80;99.90;;;;;;5115798;28;20114;-51
2022/02/10 23:19:27;;;;;;;15.48;2.38;;;3.80;99.90;;;;;;5115513;28;20402;-52
2022/02/10 23:21:53;;;;;;;10.93;2.33;;;3.80;99.90;;;;;;5115535;28;20392;-51
2022/02/10 23:24:19;;;;;;;11.57;2.78;;;3.70;99.90;;;;;;5115741;28;20040;-51
2022/02/10 23:26:45;;;;;;;12.95;2.33;;;3.80;99.90;;;;;;5115513;28;20473;-52
2022/02/10 23:29:10;;;;;;;10.52;2.22;;;3.70;99.90;;;;;;5115537;28;20039;-48
2022/02/10 23:31:36;;;;;;;10.80;2.45;;;3.80;99.90;;;;;;5115506;28;20034;-53
2022/02/10 23:34:04;;;;;;;13.40;2.22;;;3.80;99.90;;;;;;5115256;28;20540;-51
2022/02/10 23:36:50;;;;;;;13.05;2.20;;;3.90;99.90;;;;;;5115391;28;20489;-52
2022/02/10 23:39:27;;;;;;;10.25;2.55;;;3.90;99.90;;;;;;5115827;28;20031;-52
2022/02/10 23:44:29;;;;;;;15.70;2.67;;;3.90;99.90;;;;;;5115277;28;20043;-51
2022/02/10 23:46:57;;;;;;;9.90;1.92;;;3.90;99.90;;;;;;5115745;28;20829;-53
2022/02/10 23:49:25;;;;;;;17.52;2.80;;;3.80;99.90;;;;;;5115822;28;20047;-52
2022/02/10 23:51:59;;;;;;;8.10;2.03;;;3.80;99.90;;;;;;5097365;28;20055;-52
2022/02/10 23:54:27;;;;;;;16.27;2.42;;;3.80;99.90;;;;;;5113990;28;20478;-52
2022/02/10 23:56:59;;;;;;;13.02;1.90;;;3.80;99.90;;;;;;5096888;28;20067;-51
2022/02/10 23:59:38;;;;;;;9.23;1.73;;;3.80;99.90;;;;;;5115157;28;20039;-52
